sensor_id;sensor_type;location;lat;lon;timestamp;P1;durP1;ratioP1;P2;durP2;ratioP2
62863;SDS011;48954;59.950;11.014;2024-03-02T00:00:49;14.10;;;7.00;;
62863;SDS011;48954;59.950;11.014;2024-03-02T00:03:56;13.10;;;6.40;;
62863;SDS011;48954;59.950;11.014;2024-03-02T00:06:38;13.60;;;6.00;;
62863;SDS011;48954;59.950;11.014;2024-03-02T00:09:22;12.30;;;5.50;;
62863;SDS011;48954;59.950;11.014;2024-03-02T00:11:51;15.00;;;6.20;;
62863;SDS011;48954;59.950;11.014;2024-03-02T00:14:53;12.10;;;6.00;;
62863;SDS011;48954;59.950;11.014;2024-03-02T00:17:26;15.20;;;6.40;;
62863;SDS011;48954;59.950;11.014;2024-03-02T00:20:11;14.30;;;5.80;;
62863;SDS011;48954;59.950;11.014;2024-03-02T00:23:02;12.70;;;6.30;;
62863;SDS011;48954;59.950;11.014;2024-03-02T00:25:52;11.70;;;5.90;;
62863;SDS011;48954;59.950;11.014;2024-03-02T00:28:54;16.40;;;6.30;;
62863;SDS011;48954;59.950;11.014;2024-03-02T00:32:22;16.30;;;6.00;;
62863;SDS011;48954;59.950;11.014;2024-03-02T00:35:21;12.40;;;4.90;;
62863;SDS011;48954;59.950;11.014;2024-03-02T00:37:52;10.90;;;5.50;;
62863;SDS011;48954;59.950;11.014;2024-03-02T00:40:19;14.10;;;6.00;;
62863;SDS011;48954;59.950;11.014;2024-03-02T00:43:00;12.30;;;5.90;;
62863;SDS011;48954;59.950;11.014;2024-03-02T00:45:39;12.00;;;4.60;;
62863;SDS011;48954;59.950;11.014;2024-03-02T00:48:06;12.40;;;5.10;;
62863;SDS011;48954;59.950;11.014;2024-03-02T00:50:36;16.70;;;5.70;;
62863;SDS011;48954;59.950;11.014;2024-03-02T00:53:04;15.10;;;5.40;;
62863;SDS011;48954;59.950;11.014;2024-03-02T00:55:39;12.50;;;5.30;;
62863;SDS011;48954;59.950;11.014;2024-03-02T00:58:20;16.10;;;5.10;;
62863;SDS011;48954;59.950;11.014;2024-03-02T01:01:00;15.80;;;5.40;;
62863;SDS011;48954;59.950;11.014;2024-03-02T01:03:33;21.80;;;5.80;;
62863;SDS011;48954;59.950;11.014;2024-03-02T01:06:56;10.40;;;4.70;;
62863;SDS011;48954;59.950;11.014;2024-03-02T01:11:59;12.40;;;4.70;;
62863;SDS011;48954;59.950;11.014;2024-03-02T01:14:37;11.80;;;4.20;;
62863;SDS011;48954;59.950;11.014;2024-03-02T01:17:20;15.70;;;5.30;;
62863;SDS011;48954;59.950;11.014;2024-03-02T01:19:53;14.00;;;4.80;;
62863;SDS011;48954;59.950;11.014;2024-03-02T01:25:42;9.00;;;4.40;;
62863;SDS011;48954;59.950;11.014;2024-03-02T01:28:08;10.10;;;4.30;;
62863;SDS011;48954;59.950;11.014;2024-03-02T01:30:47;10.70;;;4.30;;
62863;SDS011;48954;59.950;11.014;2024-03-02T01:33:42;9.50;;;4.70;;
62863;SDS011;48954;59.950;11.014;2024-03-02T01:36:33;8.00;;;3.00;;
62863;SDS011;48954;59.950;11.014;2024-03-02T01:39:09;9.20;;;4.40;;
62863;SDS011;48954;59.950;11.014;2024-03-02T01:41:39;10.10;;;4.50;;
62863;SDS011;48954;59.950;11.014;2024-03-02T01:44:42;9.00;;;4.60;;
62863;SDS011;48954;59.950;11.014;2024-03-02T01:47:10;10.10;;;4.10;;
62863;SDS011;48954;59.950;11.014;2024-03-02T01:49:36;9.90;;;4.70;;
62863;SDS011;48954;59.950;11.014;2024-03-02T01:52:19;11.10;;;4.30;;
62863;SDS011;48954;59.950;11.014;2024-03-02T01:57:32;9.80;;;4.10;;
62863;SDS011;48954;59.950;11.014;2024-03-02T02:02:27;7.70;;;3.70;;
62863;SDS011;48954;59.950;11.014;2024-03-02T02:04:55;8.90;;;4.00;;
62863;SDS011;48954;59.950;11.014;2024-03-02T02:07:23;11.10;;;4.00;;
62863;SDS011;48954;59.950;11.014;2024-03-02T02:09:50;7.90;;;3.40;;
62863;SDS011;48954;59.950;11.014;2024-03-02T02:12:18;7.90;;;3.70;;
62863;SDS011;48954;59.950;11.014;2024-03-02T02:14:49;8.70;;;3.90;;
62863;SDS011;48954;59.950;11.014;2024-03-02T02:17:17;9.40;;;4.30;;
62863;SDS011;48954;59.950;11.014;2024-03-02T02:19:45;10.50;;;4.70;;
62863;SDS011;48954;59.950;11.014;2024-03-02T02:22:11;9.60;;;4.20;;
62863;SDS011;48954;59.950;11.014;2024-03-02T02:24:41;7.00;;;3.60;;
62863;SDS011;48954;59.950;11.014;2024-03-02T02:27:09;6.10;;;2.50;;
62863;SDS011;48954;59.950;11.014;2024-03-02T02:29:38;5.00;;;2.70;;
62863;SDS011;48954;59.950;11.014;2024-03-02T02:32:19;9.40;;;3.10;;
62863;SDS011;48954;59.950;11.014;2024-03-02T02:35:00;5.60;;;3.20;;
62863;SDS011;48954;59.950;11.014;2024-03-02T02:37:55;7.30;;;3.70;;
62863;SDS011;48954;59.950;11.014;2024-03-02T02:40:23;7.60;;;3.20;;
62863;SDS011;48954;59.950;11.014;2024-03-02T02:42:58;13.40;;;4.20;;
62863;SDS011;48954;59.950;11.014;2024-03-02T02:45:26;8.10;;;3.70;;
62863;SDS011;48954;59.950;11.014;2024-03-02T02:47:55;9.30;;;3.40;;
62863;SDS011;48954;59.950;11.014;2024-03-02T02:50:26;12.40;;;4.20;;
62863;SDS011;48954;59.950;11.014;2024-03-02T02:52:52;20.30;;;3.90;;
62863;SDS011;48954;59.950;11.014;2024-03-02T02:55:29;11.20;;;3.40;;
62863;SDS011;48954;59.950;11.014;2024-03-02T02:57:57;15.10;;;3.90;;
62863;SDS011;48954;59.950;11.014;2024-03-02T03:00:38;10.40;;;3.40;;
62863;SDS011;48954;59.950;11.014;2024-03-02T03:03:04;11.10;;;3.70;;
62863;SDS011;48954;59.950;11.014;2024-03-02T03:05:34;8.80;;;3.10;;
62863;SDS011;48954;59.950;11.014;2024-03-02T03:08:00;10.50;;;4.00;;
62863;SDS011;48954;59.950;11.014;2024-03-02T03:10:26;9.50;;;3.60;;
62863;SDS011;48954;59.950;11.014;2024-03-02T03:12:53;10.80;;;4.00;;
62863;SDS011;48954;59.950;11.014;2024-03-02T03:15:19;21.90;;;4.20;;
62863;SDS011;48954;59.950;11.014;2024-03-02T03:17:46;15.80;;;3.90;;
62863;SDS011;48954;59.950;11.014;2024-03-02T03:20:12;27.00;;;4.20;;
62863;SDS011;48954;59.950;11.014;2024-03-02T03:22:38;12.60;;;3.60;;
62863;SDS011;48954;59.950;11.014;2024-03-02T03:25:05;16.10;;;4.00;;
62863;SDS011;48954;59.950;11.014;2024-03-02T03:27:31;32.60;;;5.20;;
62863;SDS011;48954;59.950;11.014;2024-03-02T03:30:00;24.70;;;4.10;;
62863;SDS011;48954;59.950;11.014;2024-03-02T03:32:26;47.70;;;5.30;;
62863;SDS011;48954;59.950;11.014;2024-03-02T03:34:53;26.20;;;3.90;;
62863;SDS011;48954;59.950;11.014;2024-03-02T03:37:19;36.10;;;5.50;;
62863;SDS011;48954;59.950;11.014;2024-03-02T03:39:45;30.70;;;4.40;;
62863;SDS011;48954;59.950;11.014;2024-03-02T03:42:14;49.70;;;5.20;;
62863;SDS011;48954;59.950;11.014;2024-03-02T03:44:40;32.50;;;4.30;;
62863;SDS011;48954;59.950;11.014;2024-03-02T03:47:06;47.00;;;5.30;;
62863;SDS011;48954;59.950;11.014;2024-03-02T03:49:33;25.20;;;4.70;;
62863;SDS011;48954;59.950;11.014;2024-03-02T03:52:00;17.20;;;3.30;;
62863;SDS011;48954;59.950;11.014;2024-03-02T03:54:26;32.80;;;5.30;;
62863;SDS011;48954;59.950;11.014;2024-03-02T03:56:52;21.80;;;4.80;;
62863;SDS011;48954;59.950;11.014;2024-03-02T03:59:29;27.60;;;4.90;;
62863;SDS011;48954;59.950;11.014;2024-03-02T04:01:56;15.40;;;4.40;;
62863;SDS011;48954;59.950;11.014;2024-03-02T04:04:22;9.40;;;3.70;;
62863;SDS011;48954;59.950;11.014;2024-03-02T04:06:48;10.30;;;4.40;;
62863;SDS011;48954;59.950;11.014;2024-03-02T04:09:14;17.00;;;4.20;;
62863;SDS011;48954;59.950;11.014;2024-03-02T04:11:41;14.90;;;4.10;;
62863;SDS011;48954;59.950;11.014;2024-03-02T04:14:07;23.80;;;5.00;;
62863;SDS011;48954;59.950;11.014;2024-03-02T04:16:34;15.30;;;3.90;;
62863;SDS011;48954;59.950;11.014;2024-03-02T04:19:04;19.50;;;4.10;;
62863;SDS011;48954;59.950;11.014;2024-03-02T04:21:40;14.20;;;4.40;;
62863;SDS011;48954;59.950;11.014;2024-03-02T04:24:23;11.80;;;3.50;;
62863;SDS011;48954;59.950;11.014;2024-03-02T04:26:52;15.00;;;4.00;;
62863;SDS011;48954;59.950;11.014;2024-03-02T04:29:25;12.20;;;4.00;;
62863;SDS011;48954;59.950;11.014;2024-03-02T04:32:06;21.40;;;4.80;;
62863;SDS011;48954;59.950;11.014;2024-03-02T04:34:32;16.00;;;3.90;;
62863;SDS011;48954;59.950;11.014;2024-03-02T04:36:58;12.70;;;3.90;;
62863;SDS011;48954;59.950;11.014;2024-03-02T04:39:24;26.90;;;4.10;;
62863;SDS011;48954;59.950;11.014;2024-03-02T04:42:06;6.70;;;3.20;;
62863;SDS011;48954;59.950;11.014;2024-03-02T04:44:33;17.30;;;4.30;;
62863;SDS011;48954;59.950;11.014;2024-03-02T04:46:59;12.40;;;3.50;;
62863;SDS011;48954;59.950;11.014;2024-03-02T04:49:50;9.80;;;4.10;;
62863;SDS011;48954;59.950;11.014;2024-03-02T04:52:18;15.70;;;4.20;;
62863;SDS011;48954;59.950;11.014;2024-03-02T04:54:44;22.90;;;4.40;;
62863;SDS011;48954;59.950;11.014;2024-03-02T04:57:11;18.20;;;4.30;;
62863;SDS011;48954;59.950;11.014;2024-03-02T04:59:37;15.50;;;3.90;;
62863;SDS011;48954;59.950;11.014;2024-03-02T05:02:03;34.20;;;5.80;;
62863;SDS011;48954;59.950;11.014;2024-03-02T05:04:31;38.40;;;5.00;;
62863;SDS011;48954;59.950;11.014;2024-03-02T05:06:57;24.40;;;4.10;;
62863;SDS011;48954;59.950;11.014;2024-03-02T05:09:23;22.60;;;5.20;;
62863;SDS011;48954;59.950;11.014;2024-03-02T05:11:49;26.60;;;4.90;;
62863;SDS011;48954;59.950;11.014;2024-03-02T05:14:16;14.10;;;4.50;;
62863;SDS011;48954;59.950;11.014;2024-03-02T05:16:45;14.70;;;4.30;;
62863;SDS011;48954;59.950;11.014;2024-03-02T05:19:13;11.10;;;3.60;;
62863;SDS011;48954;59.950;11.014;2024-03-02T05:21:40;6.00;;;2.70;;
62863;SDS011;48954;59.950;11.014;2024-03-02T05:24:06;8.80;;;3.10;;
62863;SDS011;48954;59.950;11.014;2024-03-02T05:26:35;9.10;;;3.50;;
62863;SDS011;48954;59.950;11.014;2024-03-02T05:29:02;12.40;;;3.90;;
62863;SDS011;48954;59.950;11.014;2024-03-02T05:31:38;10.50;;;3.40;;
62863;SDS011;48954;59.950;11.014;2024-03-02T05:34:05;7.90;;;3.50;;
62863;SDS011;48954;59.950;11.014;2024-03-02T05:36:33;7.80;;;4.00;;
62863;SDS011;48954;59.950;11.014;2024-03-02T05:38:59;12.00;;;4.20;;
62863;SDS011;48954;59.950;11.014;2024-03-02T05:41:30;8.40;;;3.70;;
62863;SDS011;48954;59.950;11.014;2024-03-02T05:43:57;13.30;;;4.00;;
62863;SDS011;48954;59.950;11.014;2024-03-02T05:46:23;8.20;;;3.20;;
62863;SDS011;48954;59.950;11.014;2024-03-02T05:48:49;16.10;;;4.20;;
62863;SDS011;48954;59.950;11.014;2024-03-02T05:51:15;11.00;;;3.50;;
62863;SDS011;48954;59.950;11.014;2024-03-02T05:53:42;11.00;;;3.10;;
62863;SDS011;48954;59.950;11.014;2024-03-02T05:56:14;13.50;;;3.60;;
62863;SDS011;48954;59.950;11.014;2024-03-02T05:58:40;13.20;;;4.50;;
62863;SDS011;48954;59.950;11.014;2024-03-02T06:01:06;19.60;;;4.70;;
62863;SDS011;48954;59.950;11.014;2024-03-02T06:03:32;18.10;;;3.90;;
62863;SDS011;48954;59.950;11.014;2024-03-02T06:06:00;14.30;;;3.70;;
62863;SDS011;48954;59.950;11.014;2024-03-02T06:08:26;8.60;;;3.20;;
62863;SDS011;48954;59.950;11.014;2024-03-02T06:10:54;10.90;;;4.00;;
62863;SDS011;48954;59.950;11.014;2024-03-02T06:13:21;10.60;;;3.90;;
62863;SDS011;48954;59.950;11.014;2024-03-02T06:15:50;9.70;;;3.80;;
62863;SDS011;48954;59.950;11.014;2024-03-02T06:18:17;10.20;;;4.00;;
62863;SDS011;48954;59.950;11.014;2024-03-02T06:20:43;10.70;;;4.60;;
62863;SDS011;48954;59.950;11.014;2024-03-02T06:23:09;15.90;;;4.90;;
62863;SDS011;48954;59.950;11.014;2024-03-02T06:25:39;11.50;;;4.20;;
62863;SDS011;48954;59.950;11.014;2024-03-02T06:28:19;10.70;;;3.80;;
62863;SDS011;48954;59.950;11.014;2024-03-02T06:30:46;20.00;;;5.10;;
62863;SDS011;48954;59.950;11.014;2024-03-02T06:33:15;19.70;;;4.70;;
62863;SDS011;48954;59.950;11.014;2024-03-02T06:35:42;22.60;;;4.70;;
62863;SDS011;48954;59.950;11.014;2024-03-02T06:38:09;18.80;;;3.90;;
62863;SDS011;48954;59.950;11.014;2024-03-02T06:40:36;46.90;;;5.00;;
62863;SDS011;48954;59.950;11.014;2024-03-02T06:43:02;27.50;;;4.70;;
62863;SDS011;48954;59.950;11.014;2024-03-02T06:45:29;29.20;;;5.50;;
62863;SDS011;48954;59.950;11.014;2024-03-02T06:47:56;31.40;;;6.20;;
62863;SDS011;48954;59.950;11.014;2024-03-02T06:50:28;42.40;;;7.00;;
62863;SDS011;48954;59.950;11.014;2024-03-02T06:52:56;42.00;;;6.30;;
62863;SDS011;48954;59.950;11.014;2024-03-02T06:55:22;61.60;;;6.70;;
62863;SDS011;48954;59.950;11.014;2024-03-02T06:57:50;69.10;;;6.30;;
62863;SDS011;48954;59.950;11.014;2024-03-02T07:00:17;43.30;;;5.20;;
62863;SDS011;48954;59.950;11.014;2024-03-02T07:02:45;75.80;;;6.80;;
62863;SDS011;48954;59.950;11.014;2024-03-02T07:05:13;98.10;;;7.90;;
62863;SDS011;48954;59.950;11.014;2024-03-02T07:07:40;73.90;;;6.30;;
62863;SDS011;48954;59.950;11.014;2024-03-02T07:10:06;75.40;;;5.90;;
62863;SDS011;48954;59.950;11.014;2024-03-02T07:12:33;52.20;;;5.60;;
62863;SDS011;48954;59.950;11.014;2024-03-02T07:15:03;34.10;;;4.00;;
62863;SDS011;48954;59.950;11.014;2024-03-02T07:17:30;59.00;;;5.50;;
62863;SDS011;48954;59.950;11.014;2024-03-02T07:19:58;68.10;;;6.20;;
62863;SDS011;48954;59.950;11.014;2024-03-02T07:22:27;36.50;;;4.50;;
62863;SDS011;48954;59.950;11.014;2024-03-02T07:24:57;36.80;;;4.00;;
62863;SDS011;48954;59.950;11.014;2024-03-02T07:27:28;51.90;;;5.00;;
62863;SDS011;48954;59.950;11.014;2024-03-02T07:29:57;20.90;;;3.70;;
62863;SDS011;48954;59.950;11.014;2024-03-02T07:32:24;28.90;;;3.90;;
62863;SDS011;48954;59.950;11.014;2024-03-02T07:34:50;46.50;;;5.10;;
62863;SDS011;48954;59.950;11.014;2024-03-02T07:37:17;34.00;;;4.30;;
62863;SDS011;48954;59.950;11.014;2024-03-02T07:39:43;59.30;;;7.30;;
62863;SDS011;48954;59.950;11.014;2024-03-02T07:42:10;19.50;;;3.80;;
62863;SDS011;48954;59.950;11.014;2024-03-02T07:44:36;68.40;;;5.80;;
62863;SDS011;48954;59.950;11.014;2024-03-02T07:47:05;66.40;;;5.20;;
62863;SDS011;48954;59.950;11.014;2024-03-02T07:49:32;71.70;;;6.30;;
62863;SDS011;48954;59.950;11.014;2024-03-02T07:52:12;82.90;;;6.30;;
62863;SDS011;48954;59.950;11.014;2024-03-02T07:54:39;119.80;;;7.70;;
62863;SDS011;48954;59.950;11.014;2024-03-02T07:57:06;44.40;;;4.30;;
62863;SDS011;48954;59.950;11.014;2024-03-02T07:59:36;118.40;;;9.10;;
62863;SDS011;48954;59.950;11.014;2024-03-02T08:02:07;69.60;;;7.00;;
62863;SDS011;48954;59.950;11.014;2024-03-02T08:04:35;84.90;;;7.60;;
62863;SDS011;48954;59.950;11.014;2024-03-02T08:07:10;46.30;;;5.10;;
62863;SDS011;48954;59.950;11.014;2024-03-02T08:09:36;51.80;;;5.40;;
62863;SDS011;48954;59.950;11.014;2024-03-02T08:12:04;41.80;;;5.70;;
62863;SDS011;48954;59.950;11.014;2024-03-02T08:14:34;29.30;;;4.60;;
62863;SDS011;48954;59.950;11.014;2024-03-02T08:17:02;8.70;;;3.60;;
62863;SDS011;48954;59.950;11.014;2024-03-02T08:19:28;8.10;;;4.10;;
62863;SDS011;48954;59.950;11.014;2024-03-02T08:21:57;6.40;;;2.80;;
62863;SDS011;48954;59.950;11.014;2024-03-02T08:24:26;11.10;;;4.40;;
62863;SDS011;48954;59.950;11.014;2024-03-02T08:26:53;7.20;;;3.10;;
62863;SDS011;48954;59.950;11.014;2024-03-02T08:29:24;8.90;;;4.00;;
62863;SDS011;48954;59.950;11.014;2024-03-02T08:31:59;7.90;;;3.20;;
62863;SDS011;48954;59.950;11.014;2024-03-02T08:34:29;8.00;;;3.80;;
62863;SDS011;48954;59.950;11.014;2024-03-02T08:36:57;8.20;;;4.10;;
62863;SDS011;48954;59.950;11.014;2024-03-02T08:39:24;8.20;;;3.70;;
62863;SDS011;48954;59.950;11.014;2024-03-02T08:41:50;8.30;;;3.80;;
62863;SDS011;48954;59.950;11.014;2024-03-02T08:44:30;7.40;;;3.80;;
62863;SDS011;48954;59.950;11.014;2024-03-02T08:47:00;12.30;;;5.70;;
62863;SDS011;48954;59.950;11.014;2024-03-02T08:49:33;9.90;;;4.90;;
62863;SDS011;48954;59.950;11.014;2024-03-02T08:52:04;10.10;;;4.70;;
62863;SDS011;48954;59.950;11.014;2024-03-02T08:54:35;10.20;;;5.20;;
62863;SDS011;48954;59.950;11.014;2024-03-02T08:57:01;9.30;;;4.20;;
62863;SDS011;48954;59.950;11.014;2024-03-02T08:59:29;9.50;;;4.80;;
62863;SDS011;48954;59.950;11.014;2024-03-02T09:02:01;10.90;;;4.90;;
62863;SDS011;48954;59.950;11.014;2024-03-02T09:04:28;8.70;;;3.80;;
62863;SDS011;48954;59.950;11.014;2024-03-02T09:06:55;9.90;;;4.50;;
62863;SDS011;48954;59.950;11.014;2024-03-02T09:09:23;10.00;;;4.70;;
62863;SDS011;48954;59.950;11.014;2024-03-02T09:11:49;6.40;;;3.50;;
62863;SDS011;48954;59.950;11.014;2024-03-02T09:14:16;8.90;;;4.60;;
62863;SDS011;48954;59.950;11.014;2024-03-02T09:16:56;7.90;;;4.50;;
62863;SDS011;48954;59.950;11.014;2024-03-02T09:19:23;7.70;;;4.10;;
62863;SDS011;48954;59.950;11.014;2024-03-02T09:21:49;10.10;;;5.20;;
62863;SDS011;48954;59.950;11.014;2024-03-02T09:24:16;9.00;;;5.10;;
62863;SDS011;48954;59.950;11.014;2024-03-02T09:26:42;8.90;;;4.40;;
62863;SDS011;48954;59.950;11.014;2024-03-02T09:29:09;7.70;;;3.90;;
62863;SDS011;48954;59.950;11.014;2024-03-02T09:31:39;6.10;;;3.40;;
62863;SDS011;48954;59.950;11.014;2024-03-02T09:34:05;6.70;;;3.30;;
62863;SDS011;48954;59.950;11.014;2024-03-02T09:36:34;7.90;;;4.80;;
62863;SDS011;48954;59.950;11.014;2024-03-02T09:39:01;7.20;;;4.30;;
62863;SDS011;48954;59.950;11.014;2024-03-02T09:41:27;8.00;;;4.20;;
62863;SDS011;48954;59.950;11.014;2024-03-02T09:43:54;10.20;;;4.70;;
62863;SDS011;48954;59.950;11.014;2024-03-02T09:46:21;8.00;;;4.20;;
62863;SDS011;48954;59.950;11.014;2024-03-02T09:48:47;7.50;;;4.50;;
62863;SDS011;48954;59.950;11.014;2024-03-02T09:51:18;6.90;;;3.70;;
62863;SDS011;48954;59.950;11.014;2024-03-02T09:53:45;7.90;;;4.80;;
62863;SDS011;48954;59.950;11.014;2024-03-02T09:56:14;6.00;;;3.50;;
62863;SDS011;48954;59.950;11.014;2024-03-02T09:58:41;6.30;;;3.60;;
62863;SDS011;48954;59.950;11.014;2024-03-02T10:01:08;6.10;;;3.50;;
62863;SDS011;48954;59.950;11.014;2024-03-02T10:03:39;5.80;;;3.40;;
62863;SDS011;48954;59.950;11.014;2024-03-02T10:06:18;5.50;;;3.10;;
62863;SDS011;48954;59.950;11.014;2024-03-02T10:08:49;5.70;;;3.00;;
62863;SDS011;48954;59.950;11.014;2024-03-02T10:14:12;7.10;;;3.50;;
62863;SDS011;48954;59.950;11.014;2024-03-02T10:16:43;6.90;;;3.70;;
62863;SDS011;48954;59.950;11.014;2024-03-02T10:19:24;6.90;;;3.40;;
62863;SDS011;48954;59.950;11.014;2024-03-02T10:21:51;5.30;;;3.00;;
62863;SDS011;48954;59.950;11.014;2024-03-02T10:24:23;7.90;;;3.70;;
62863;SDS011;48954;59.950;11.014;2024-03-02T10:26:50;6.70;;;3.10;;
62863;SDS011;48954;59.950;11.014;2024-03-02T10:29:17;7.90;;;4.10;;
62863;SDS011;48954;59.950;11.014;2024-03-02T10:31:53;5.60;;;3.60;;
62863;SDS011;48954;59.950;11.014;2024-03-02T10:34:34;6.80;;;3.60;;
62863;SDS011;48954;59.950;11.014;2024-03-02T10:37:11;8.10;;;4.30;;
62863;SDS011;48954;59.950;11.014;2024-03-02T10:39:52;8.10;;;3.90;;
62863;SDS011;48954;59.950;11.014;2024-03-02T10:42:18;7.60;;;4.50;;
62863;SDS011;48954;59.950;11.014;2024-03-02T10:44:59;5.00;;;2.60;;
62863;SDS011;48954;59.950;11.014;2024-03-02T10:47:42;6.90;;;3.60;;
62863;SDS011;48954;59.950;11.014;2024-03-02T10:50:56;7.00;;;3.80;;
62863;SDS011;48954;59.950;11.014;2024-03-02T10:53:28;8.20;;;4.70;;
62863;SDS011;48954;59.950;11.014;2024-03-02T10:55:57;10.10;;;4.90;;
62863;SDS011;48954;59.950;11.014;2024-03-02T10:58:24;9.90;;;4.30;;
62863;SDS011;48954;59.950;11.014;2024-03-02T11:01:28;6.50;;;3.40;;
62863;SDS011;48954;59.950;11.014;2024-03-02T11:04:09;7.40;;;4.10;;
62863;SDS011;48954;59.950;11.014;2024-03-02T11:06:40;7.00;;;4.40;;
62863;SDS011;48954;59.950;11.014;2024-03-02T11:09:21;5.80;;;3.50;;
62863;SDS011;48954;59.950;11.014;2024-03-02T11:12:19;5.50;;;3.20;;
62863;SDS011;48954;59.950;11.014;2024-03-02T11:14:52;8.30;;;3.90;;
62863;SDS011;48954;59.950;11.014;2024-03-02T11:17:22;8.80;;;4.50;;
62863;SDS011;48954;59.950;11.014;2024-03-02T11:19:53;7.30;;;4.00;;
62863;SDS011;48954;59.950;11.014;2024-03-02T11:22:20;6.30;;;3.40;;
62863;SDS011;48954;59.950;11.014;2024-03-02T11:24:50;8.70;;;4.20;;
62863;SDS011;48954;59.950;11.014;2024-03-02T11:28:05;4.30;;;2.30;;
62863;SDS011;48954;59.950;11.014;2024-03-02T11:33:03;6.50;;;3.90;;
62863;SDS011;48954;59.950;11.014;2024-03-02T11:35:31;10.20;;;5.30;;
62863;SDS011;48954;59.950;11.014;2024-03-02T11:37:57;8.60;;;4.60;;
62863;SDS011;48954;59.950;11.014;2024-03-02T11:40:26;8.80;;;4.30;;
62863;SDS011;48954;59.950;11.014;2024-03-02T11:43:01;9.90;;;4.60;;
62863;SDS011;48954;59.950;11.014;2024-03-02T11:45:36;7.70;;;4.50;;
62863;SDS011;48954;59.950;11.014;2024-03-02T11:48:04;11.50;;;5.20;;
62863;SDS011;48954;59.950;11.014;2024-03-02T11:50:36;10.00;;;5.30;;
62863;SDS011;48954;59.950;11.014;2024-03-02T11:53:27;8.50;;;4.90;;
62863;SDS011;48954;59.950;11.014;2024-03-02T11:56:09;5.90;;;3.20;;
62863;SDS011;48954;59.950;11.014;2024-03-02T11:58:40;9.10;;;4.80;;
62863;SDS011;48954;59.950;11.014;2024-03-02T12:01:09;5.60;;;3.20;;
62863;SDS011;48954;59.950;11.014;2024-03-02T12:04:15;9.50;;;4.40;;
62863;SDS011;48954;59.950;11.014;2024-03-02T12:06:59;11.00;;;5.90;;
62863;SDS011;48954;59.950;11.014;2024-03-02T12:09:28;10.10;;;4.70;;
62863;SDS011;48954;59.950;11.014;2024-03-02T12:12:10;9.20;;;4.40;;
62863;SDS011;48954;59.950;11.014;2024-03-02T12:14:57;7.60;;;4.20;;
62863;SDS011;48954;59.950;11.014;2024-03-02T12:17:28;9.00;;;4.80;;
62863;SDS011;48954;59.950;11.014;2024-03-02T12:20:11;5.20;;;2.90;;
62863;SDS011;48954;59.950;11.014;2024-03-02T12:22:40;8.50;;;4.90;;
62863;SDS011;48954;59.950;11.014;2024-03-02T12:25:21;7.30;;;3.40;;
62863;SDS011;48954;59.950;11.014;2024-03-02T12:27:58;8.40;;;4.20;;
62863;SDS011;48954;59.950;11.014;2024-03-02T12:30:41;8.00;;;4.60;;
62863;SDS011;48954;59.950;11.014;2024-03-02T12:33:22;8.40;;;4.20;;
62863;SDS011;48954;59.950;11.014;2024-03-02T12:36:03;10.30;;;5.00;;
62863;SDS011;48954;59.950;11.014;2024-03-02T12:38:33;11.50;;;5.20;;
62863;SDS011;48954;59.950;11.014;2024-03-02T12:41:02;9.80;;;4.70;;
62863;SDS011;48954;59.950;11.014;2024-03-02T12:43:44;10.00;;;5.10;;
62863;SDS011;48954;59.950;11.014;2024-03-02T12:46:24;8.70;;;4.10;;
62863;SDS011;48954;59.950;11.014;2024-03-02T12:48:52;10.20;;;4.80;;
62863;SDS011;48954;59.950;11.014;2024-03-02T12:51:22;8.10;;;4.20;;
62863;SDS011;48954;59.950;11.014;2024-03-02T12:53:54;10.70;;;5.10;;
62863;SDS011;48954;59.950;11.014;2024-03-02T12:56:23;11.60;;;6.00;;
62863;SDS011;48954;59.950;11.014;2024-03-02T12:58:59;8.50;;;4.80;;
62863;SDS011;48954;59.950;11.014;2024-03-02T13:01:29;9.40;;;4.10;;
62863;SDS011;48954;59.950;11.014;2024-03-02T13:04:05;13.90;;;6.30;;
62863;SDS011;48954;59.950;11.014;2024-03-02T13:06:32;11.20;;;5.90;;
62863;SDS011;48954;59.950;11.014;2024-03-02T13:09:02;12.50;;;5.50;;
62863;SDS011;48954;59.950;11.014;2024-03-02T13:11:31;10.30;;;5.50;;
62863;SDS011;48954;59.950;11.014;2024-03-02T13:13:57;9.40;;;4.80;;
62863;SDS011;48954;59.950;11.014;2024-03-02T13:16:26;12.70;;;5.70;;
62863;SDS011;48954;59.950;11.014;2024-03-02T13:18:58;8.80;;;4.80;;
62863;SDS011;48954;59.950;11.014;2024-03-02T13:21:28;9.70;;;5.30;;
62863;SDS011;48954;59.950;11.014;2024-03-02T13:23:59;8.00;;;4.10;;
62863;SDS011;48954;59.950;11.014;2024-03-02T13:26:33;9.10;;;4.70;;
62863;SDS011;48954;59.950;11.014;2024-03-02T13:28:59;11.20;;;5.60;;
62863;SDS011;48954;59.950;11.014;2024-03-02T13:31:27;7.80;;;4.40;;
62863;SDS011;48954;59.950;11.014;2024-03-02T13:33:58;11.60;;;4.50;;
62863;SDS011;48954;59.950;11.014;2024-03-02T13:36:27;7.60;;;4.30;;
62863;SDS011;48954;59.950;11.014;2024-03-02T13:38:53;12.30;;;5.50;;
62863;SDS011;48954;59.950;11.014;2024-03-02T13:41:28;8.40;;;4.20;;
62863;SDS011;48954;59.950;11.014;2024-03-02T13:44:09;6.80;;;3.60;;
62863;SDS011;48954;59.950;11.014;2024-03-02T13:46:42;7.10;;;4.00;;
62863;SDS011;48954;59.950;11.014;2024-03-02T13:49:26;7.20;;;3.70;;
62863;SDS011;48954;59.950;11.014;2024-03-02T13:51:52;8.50;;;4.50;;
62863;SDS011;48954;59.950;11.014;2024-03-02T13:54:18;9.00;;;5.20;;
62863;SDS011;48954;59.950;11.014;2024-03-02T13:56:45;8.50;;;4.30;;
62863;SDS011;48954;59.950;11.014;2024-03-02T13:59:12;7.90;;;4.60;;
62863;SDS011;48954;59.950;11.014;2024-03-02T14:01:40;6.40;;;3.50;;
62863;SDS011;48954;59.950;11.014;2024-03-02T14:04:09;9.10;;;5.30;;
62863;SDS011;48954;59.950;11.014;2024-03-02T14:06:36;7.50;;;4.60;;
62863;SDS011;48954;59.950;11.014;2024-03-02T14:09:03;6.40;;;3.80;;
62863;SDS011;48954;59.950;11.014;2024-03-02T14:11:30;8.60;;;4.90;;
62863;SDS011;48954;59.950;11.014;2024-03-02T14:13:56;6.40;;;3.40;;
62863;SDS011;48954;59.950;11.014;2024-03-02T14:16:23;8.80;;;4.70;;
62863;SDS011;48954;59.950;11.014;2024-03-02T14:18:55;8.40;;;4.40;;
62863;SDS011;48954;59.950;11.014;2024-03-02T14:21:23;7.00;;;4.00;;
62863;SDS011;48954;59.950;11.014;2024-03-02T14:24:07;8.90;;;4.80;;
62863;SDS011;48954;59.950;11.014;2024-03-02T14:26:49;8.50;;;4.20;;
62863;SDS011;48954;59.950;11.014;2024-03-02T14:29:17;7.70;;;4.10;;
62863;SDS011;48954;59.950;11.014;2024-03-02T14:31:43;8.70;;;4.30;;
62863;SDS011;48954;59.950;11.014;2024-03-02T14:34:11;6.20;;;3.80;;
62863;SDS011;48954;59.950;11.014;2024-03-02T14:36:41;8.90;;;4.90;;
62863;SDS011;48954;59.950;11.014;2024-03-02T14:39:07;5.60;;;3.60;;
62863;SDS011;48954;59.950;11.014;2024-03-02T14:41:34;9.00;;;4.80;;
62863;SDS011;48954;59.950;11.014;2024-03-02T14:44:00;7.70;;;4.50;;
62863;SDS011;48954;59.950;11.014;2024-03-02T14:46:26;8.40;;;4.40;;
62863;SDS011;48954;59.950;11.014;2024-03-02T14:48:55;9.10;;;4.60;;
62863;SDS011;48954;59.950;11.014;2024-03-02T14:51:21;6.50;;;3.70;;
62863;SDS011;48954;59.950;11.014;2024-03-02T14:53:47;8.20;;;4.50;;
62863;SDS011;48954;59.950;11.014;2024-03-02T14:56:14;8.30;;;4.40;;
62863;SDS011;48954;59.950;11.014;2024-03-02T14:58:40;11.50;;;5.80;;
62863;SDS011;48954;59.950;11.014;2024-03-02T15:01:10;8.40;;;4.60;;
62863;SDS011;48954;59.950;11.014;2024-03-02T15:03:39;12.00;;;5.20;;
62863;SDS011;48954;59.950;11.014;2024-03-02T15:06:06;6.30;;;3.70;;
62863;SDS011;48954;59.950;11.014;2024-03-02T15:08:35;8.40;;;4.30;;
62863;SDS011;48954;59.950;11.014;2024-03-02T15:11:03;8.10;;;4.30;;